Terminal Aerodrome Forecast
Issued by NWS

Home | Current Version | Previous Version | Text Only | Print | Product List | Glossary On
Versions: 1 2 3 4 5 6 7 8 9 10 11 12 13 14 15
593
FTUS43 KGRB 211139
TAFAUW
TAF
KAUW 211139Z 2112/2212 VRB03KT P6SM SKC
     FM211500 21005KT P6SM SCT045
     FM212200 19007KT P6SM BKN060
     FM220100 17006KT P6SM SCT035 BKN060
      TEMPO 2201/2205 -SHRA BKN035
     FM220500 13005KT 6SM -SHRA SCT010 BKN025
      TEMPO 2205/2209 3SM TSRA OVC010CB
     FM220900 21007KT 5SM -SHRA BKN008=

USA.gov is the U.S. government's official web portal to all federal, state and local government web resources and services.